Time;durP1;ratioP1;P1;durP2;ratioP2;P2;SDS_P1;SDS_P2;PMS_P1;PMS_P2;Temp;Humidity;BMP_temperature;BMP_pressure;BME280_temperature;BME280_humidity;BME280_pressure;Samples;Min_cycle;Max_cycle;Signal;HPM_P1;HPM_P2
2024/02/21 00:01:29;;;;;;;11.50;4.50;;;4.40;99.90;;;;;;5032205;28;20213;-76
2024/02/21 00:04:16;;;;;;;13.53;4.70;;;4.40;99.90;;;;;;5032321;28;20193;-75
2024/02/21 00:07:04;;;;;;;13.30;4.83;;;4.30;99.90;;;;;;5036660;28;20671;-76
2024/02/21 00:09:51;;;;;;;21.13;4.70;;;4.40;99.90;;;;;;5034879;28;20192;-76
2024/02/21 00:12:39;;;;;;;14.03;4.57;;;4.40;99.90;;;;;;5032987;28;20240;-76
2024/02/21 00:15:26;;;;;;;10.83;4.67;;;4.40;99.90;;;;;;5032711;28;20204;-76
2024/02/21 00:18:14;;;;;;;17.00;5.10;;;4.40;99.90;;;;;;5033862;28;20191;-76
2024/02/21 00:21:02;;;;;;;13.63;4.97;;;4.40;99.90;;;;;;5033145;28;20688;-75
2024/02/21 00:23:50;;;;;;;16.10;4.77;;;4.40;99.90;;;;;;5018956;28;20213;-77
2024/02/21 00:26:38;;;;;;;16.60;5.13;;;4.50;99.90;;;;;;5032087;28;20215;-77
2024/02/21 00:29:27;;;;;;;11.60;4.60;;;4.50;99.90;;;;;;5018632;28;20243;-76
2024/02/21 00:32:14;;;;;;;17.17;4.93;;;4.50;99.90;;;;;;5032546;28;20191;-77
2024/02/21 00:35:02;;;;;;;11.13;4.93;;;4.50;99.90;;;;;;5031972;28;20203;-77
2024/02/21 00:37:50;;;;;;;12.47;4.37;;;4.40;99.90;;;;;;5032590;28;20198;-76
2024/02/21 00:40:38;;;;;;;14.80;4.90;;;4.50;99.90;;;;;;5032379;28;20207;-77
2024/02/21 00:43:25;;;;;;;17.53;4.80;;;4.60;99.90;;;;;;5031727;28;20221;-76
2024/02/21 00:46:13;;;;;;;16.10;4.60;;;4.60;99.90;;;;;;5031663;28;20657;-76
2024/02/21 00:49:00;;;;;;;13.93;4.90;;;4.60;99.90;;;;;;5032246;28;20188;-76
2024/02/21 00:51:48;;;;;;;11.63;4.87;;;4.70;99.90;;;;;;5017172;28;20296;-76
2024/02/21 00:54:35;;;;;;;11.77;4.37;;;4.70;99.90;;;;;;5032154;28;20200;-76
2024/02/21 00:57:36;;;;;;;16.53;4.60;;;4.70;99.90;;;;;;5018295;28;20310;-76
2024/02/21 01:00:24;;;;;;;12.17;4.57;;;4.70;99.90;;;;;;5031632;28;20259;-76
2024/02/21 01:03:11;;;;;;;14.80;4.63;;;4.70;99.90;;;;;;5032164;28;20234;-77
2024/02/21 01:05:59;;;;;;;17.77;4.77;;;4.70;99.90;;;;;;5031480;28;20631;-76
2024/02/21 01:08:49;;;;;;;16.53;4.93;;;4.70;99.90;;;;;;5031945;28;20191;-77
2024/02/21 01:11:37;;;;;;;13.97;4.47;;;4.70;99.90;;;;;;5030481;28;20211;-77
2024/02/21 01:14:24;;;;;;;12.97;4.77;;;4.70;99.90;;;;;;5032806;28;20200;-78
2024/02/21 01:17:12;;;;;;;14.93;4.43;;;4.70;99.90;;;;;;5031761;28;20199;-78
2024/02/21 01:20:00;;;;;;;13.97;4.90;;;4.70;99.90;;;;;;5031876;28;20263;-78
2024/02/21 01:22:48;;;;;;;14.13;5.13;;;4.70;99.90;;;;;;5030697;28;20303;-78
2024/02/21 01:25:36;;;;;;;13.00;4.60;;;4.70;99.90;;;;;;5031272;28;20592;-77
2024/02/21 01:28:23;;;;;;;14.90;5.20;;;4.80;99.90;;;;;;5030993;28;20254;-78
2024/02/21 01:31:12;;;;;;;17.47;5.37;;;4.80;99.90;;;;;;5017198;28;20211;-78
2024/02/21 01:34:00;;;;;;;18.63;5.00;;;4.80;99.90;;;;;;5030786;28;20202;-78
2024/02/21 01:36:51;;;;;;;13.63;4.67;;;4.90;99.90;;;;;;5030992;28;20195;-78
2024/02/21 01:39:38;;;;;;;15.77;5.07;;;4.90;99.90;;;;;;5030005;28;20198;-77
2024/02/21 01:42:26;;;;;;;14.33;5.17;;;4.90;99.90;;;;;;5030881;28;20360;-77
2024/02/21 01:45:13;;;;;;;14.70;4.87;;;4.90;99.90;;;;;;5032169;28;20349;-77
2024/02/21 01:48:05;;;;;;;15.50;5.53;;;4.90;99.90;;;;;;5017136;28;20205;-78
2024/02/21 01:50:55;;;;;;;15.97;4.97;;;4.90;99.90;;;;;;5032312;28;20245;-78
2024/02/21 01:53:44;;;;;;;11.47;4.60;;;4.80;99.90;;;;;;5030843;28;20187;-78
2024/02/21 01:56:32;;;;;;;15.07;5.50;;;4.80;99.90;;;;;;5030789;28;20284;-77
2024/02/21 01:59:22;;;;;;;16.90;5.20;;;4.70;99.90;;;;;;5030248;28;20192;-78
2024/02/21 02:02:09;;;;;;;16.47;5.50;;;4.80;99.90;;;;;;5030852;28;20584;-78
2024/02/21 02:04:57;;;;;;;15.77;5.23;;;4.80;99.90;;;;;;5032005;28;20226;-78
2024/02/21 02:07:45;;;;;;;16.13;6.10;;;4.90;99.90;;;;;;5030727;28;20654;-79
2024/02/21 02:10:33;;;;;;;17.67;5.47;;;4.90;99.90;;;;;;5030333;28;20199;-79
2024/02/21 02:13:21;;;;;;;19.03;5.87;;;4.90;99.90;;;;;;5031582;28;20220;-79
2024/02/21 02:16:09;;;;;;;18.93;5.57;;;4.80;99.90;;;;;;5030809;28;20200;-79
2024/02/21 02:18:56;;;;;;;19.30;6.10;;;4.80;99.90;;;;;;5029460;28;20227;-77
2024/02/21 02:21:55;;;;;;;17.37;6.20;;;4.70;99.90;;;;;;5030771;28;20277;-78
2024/02/21 02:24:43;;;;;;;15.80;5.90;;;4.70;99.90;;;;;;5033197;28;20327;-79
2024/02/21 02:27:31;;;;;;;11.83;5.63;;;4.80;99.90;;;;;;5034460;28;20294;-78
2024/02/21 02:30:19;;;;;;;18.00;5.97;;;4.90;99.90;;;;;;5034932;28;20197;-79
2024/02/21 02:33:07;;;;;;;17.10;6.77;;;4.90;99.90;;;;;;5036298;28;20567;-78
2024/02/21 02:35:54;;;;;;;16.40;6.80;;;4.80;99.90;;;;;;5033713;28;20218;-78
2024/02/21 02:38:42;;;;;;;16.00;6.97;;;4.80;99.90;;;;;;5034575;28;20206;-78
2024/02/21 02:41:29;;;;;;;17.90;7.40;;;4.80;99.90;;;;;;5034293;28;20222;-78
2024/02/21 02:44:17;;;;;;;20.87;7.57;;;4.80;99.90;;;;;;5034709;28;20195;-78
2024/02/21 02:47:06;;;;;;;20.70;6.93;;;4.90;99.90;;;;;;5020694;28;20194;-78
2024/02/21 02:49:54;;;;;;;19.67;7.03;;;4.90;99.90;;;;;;5033973;28;20196;-78
2024/02/21 02:52:41;;;;;;;22.20;7.60;;;4.90;99.90;;;;;;5021286;28;20206;-78
2024/02/21 02:55:29;;;;;;;22.60;7.20;;;4.80;99.90;;;;;;5033485;28;20392;-78
2024/02/21 02:58:17;;;;;;;14.73;7.17;;;4.90;99.90;;;;;;5034044;28;20222;-78
2024/02/21 03:01:07;;;;;;;19.53;7.60;;;4.80;99.90;;;;;;5019628;28;20326;-79
2024/02/21 03:03:54;;;;;;;17.33;6.90;;;4.90;99.90;;;;;;5032049;28;20192;-79
2024/02/21 03:06:42;;;;;;;17.30;6.63;;;4.90;99.90;;;;;;5034655;28;20195;-79
2024/02/21 03:09:30;;;;;;;18.50;7.10;;;5.00;99.90;;;;;;5020487;28;20192;-79
2024/02/21 03:12:27;;;;;;;18.50;7.93;;;5.00;99.90;;;;;;5034735;28;20297;-79
2024/02/21 03:15:15;;;;;;;20.87;8.10;;;5.00;99.90;;;;;;5020737;28;20206;-79
2024/02/21 03:18:02;;;;;;;23.20;7.57;;;5.00;99.90;;;;;;5034649;28;20574;-78
2024/02/21 03:20:50;;;;;;;22.10;8.27;;;5.00;99.90;;;;;;5032966;28;20661;-77
2024/02/21 03:23:37;;;;;;;20.27;8.27;;;5.00;99.90;;;;;;5033269;28;20676;-79
2024/02/21 03:26:25;;;;;;;19.03;8.03;;;5.00;99.90;;;;;;5033888;28;20275;-79
2024/02/21 03:29:12;;;;;;;21.70;8.33;;;5.00;99.90;;;;;;5033901;28;20283;-79
2024/02/21 03:32:00;;;;;;;23.63;8.17;;;5.00;99.90;;;;;;5033797;28;20282;-79
2024/02/21 03:34:47;;;;;;;16.90;8.20;;;5.00;99.90;;;;;;5032947;28;20285;-79
2024/02/21 03:37:35;;;;;;;17.33;8.10;;;5.00;99.90;;;;;;5033836;28;20196;-78
2024/02/21 03:40:23;;;;;;;22.70;8.47;;;5.00;99.90;;;;;;5033397;28;20197;-78
2024/02/21 03:43:10;;;;;;;18.07;8.37;;;4.90;99.90;;;;;;5033403;28;20233;-80
2024/02/21 03:45:58;;;;;;;18.47;8.43;;;4.90;99.90;;;;;;5033581;28;20234;-78
2024/02/21 03:48:46;;;;;;;22.80;9.37;;;4.90;99.90;;;;;;5032979;28;20280;-78
2024/02/21 03:51:33;;;;;;;22.13;9.03;;;4.90;99.90;;;;;;5033131;28;20280;-79
2024/02/21 03:54:21;;;;;;;25.30;9.57;;;4.80;99.90;;;;;;5034031;28;20216;-79
2024/02/21 03:57:09;;;;;;;17.67;8.97;;;4.80;99.90;;;;;;5032713;28;20216;-79
2024/02/21 03:59:57;;;;;;;21.70;9.43;;;4.80;99.90;;;;;;5033254;28;20282;-79
2024/02/21 04:02:44;;;;;;;20.53;8.60;;;4.80;99.90;;;;;;5033286;28;20222;-79
2024/02/21 04:05:32;;;;;;;23.07;9.90;;;4.80;99.90;;;;;;5032040;28;20188;-77
2024/02/21 04:08:19;;;;;;;20.60;8.60;;;4.70;99.90;;;;;;5033123;28;20192;-79
2024/02/21 04:11:10;;;;;;;20.07;9.03;;;4.70;99.90;;;;;;5032417;28;20698;-77
2024/02/21 04:13:57;;;;;;;18.90;8.57;;;4.70;99.90;;;;;;5032998;28;20198;-78
2024/02/21 04:16:45;;;;;;;21.30;8.97;;;4.70;99.90;;;;;;5031777;28;20196;-77
2024/02/21 04:19:33;;;;;;;18.93;8.53;;;4.60;99.90;;;;;;5032876;28;20312;-79
2024/02/21 04:22:21;;;;;;;23.13;8.90;;;4.70;99.90;;;;;;5033346;28;20229;-79
2024/02/21 04:25:09;;;;;;;22.07;9.10;;;4.70;99.90;;;;;;5031932;28;20199;-79
2024/02/21 04:27:56;;;;;;;21.00;8.43;;;4.70;99.90;;;;;;5032273;28;20216;-78
2024/02/21 04:30:44;;;;;;;22.43;9.10;;;4.70;99.90;;;;;;5018833;28;20260;-79
2024/02/21 04:33:32;;;;;;;21.97;8.70;;;4.80;99.90;;;;;;5032083;28;20566;-79
2024/02/21 04:36:19;;;;;;;21.87;8.67;;;4.80;99.90;;;;;;5032545;28;20204;-79
2024/02/21 04:39:07;;;;;;;27.17;9.00;;;4.80;99.90;;;;;;5031991;28;20280;-79
2024/02/21 04:41:55;;;;;;;23.17;8.23;;;4.80;99.90;;;;;;5032368;28;20571;-79
2024/02/21 04:44:43;;;;;;;19.33;8.50;;;4.80;99.90;;;;;;5033106;28;20187;-80
2024/02/21 04:47:31;;;;;;;21.07;8.03;;;4.80;99.90;;;;;;5032707;28;20203;-78
2024/02/21 04:50:19;;;;;;;22.00;8.70;;;4.80;99.90;;;;;;5032527;28;20208;-77
2024/02/21 04:53:06;;;;;;;18.33;8.30;;;4.80;99.90;;;;;;5032295;28;20199;-79
2024/02/21 04:55:54;;;;;;;22.23;7.93;;;4.90;99.90;;;;;;5032343;28;20208;-78
2024/02/21 04:58:42;;;;;;;22.60;8.57;;;4.90;99.90;;;;;;5018296;28;20187;-79
2024/02/21 05:01:30;;;;;;;22.97;8.33;;;4.80;99.90;;;;;;5032127;28;20201;-78
2024/02/21 05:04:18;;;;;;;20.97;8.70;;;4.90;99.90;;;;;;5032598;28;20303;-79
2024/02/21 05:07:06;;;;;;;25.13;8.73;;;4.90;99.90;;;;;;5031738;28;20668;-79
2024/02/21 05:09:54;;;;;;;23.53;9.00;;;5.00;99.90;;;;;;5032095;28;20197;-78
2024/02/21 05:12:42;;;;;;;21.50;9.03;;;5.00;99.90;;;;;;5031423;28;20250;-78
2024/02/21 05:15:29;;;;;;;19.27;8.13;;;4.90;99.90;;;;;;5031376;28;20278;-78
2024/02/21 05:18:17;;;;;;;21.83;8.67;;;5.00;99.90;;;;;;5032397;28;20199;-78
2024/02/21 05:21:05;;;;;;;19.63;8.60;;;4.90;99.90;;;;;;5031933;28;20321;-79
2024/02/21 05:23:53;;;;;;;18.90;8.07;;;4.90;99.90;;;;;;5017296;28;20253;-78
2024/02/21 05:26:41;;;;;;;19.97;8.80;;;4.90;99.90;;;;;;5018368;28;20221;-79
2024/02/21 05:29:28;;;;;;;22.87;8.67;;;4.80;99.90;;;;;;5031692;28;20203;-79
2024/02/21 05:32:16;;;;;;;19.57;8.17;;;4.80;99.90;;;;;;5031747;28;20200;-79
2024/02/21 05:35:04;;;;;;;23.63;8.47;;;4.80;99.90;;;;;;5018234;28;20210;-78
2024/02/21 05:37:52;;;;;;;19.50;8.43;;;4.90;99.90;;;;;;5031024;28;20286;-78
2024/02/21 05:40:41;;;;;;;22.73;8.53;;;4.80;99.90;;;;;;5030650;28;20245;-79
2024/02/21 05:43:29;;;;;;;20.27;7.83;;;4.80;99.90;;;;;;5031390;28;20217;-78
2024/02/21 05:46:19;;;;;;;22.40;9.47;;;4.90;99.90;;;;;;5031717;28;20200;-79
2024/02/21 05:49:07;;;;;;;20.27;9.10;;;4.90;99.90;;;;;;5031038;28;20247;-79
2024/02/21 05:51:55;;;;;;;22.60;9.20;;;4.90;99.90;;;;;;5032120;28;20567;-78
2024/02/21 05:54:43;;;;;;;20.03;10.07;;;4.90;99.90;;;;;;5032704;28;20206;-78
2024/02/21 05:57:30;;;;;;;24.77;9.43;;;5.00;99.90;;;;;;5031459;28;20215;-79
2024/02/21 06:00:18;;;;;;;22.03;10.43;;;4.90;99.90;;;;;;5034534;28;20202;-79
2024/02/21 06:03:07;;;;;;;28.50;11.23;;;4.90;99.90;;;;;;5034076;28;20768;-78
2024/02/21 06:05:54;;;;;;;24.10;10.40;;;5.00;99.90;;;;;;5020551;28;20192;-78
2024/02/21 06:08:42;;;;;;;20.77;10.23;;;5.10;99.90;;;;;;5035926;28;20652;-80
2024/02/21 06:11:29;;;;;;;27.10;11.23;;;5.10;99.90;;;;;;5035156;28;20208;-78
2024/02/21 06:14:17;;;;;;;27.63;11.13;;;5.10;99.90;;;;;;5020229;28;20565;-78
2024/02/21 06:17:05;;;;;;;23.70;10.73;;;5.00;99.90;;;;;;5034630;28;20200;-78
2024/02/21 06:19:53;;;;;;;27.50;11.57;;;5.10;99.90;;;;;;5049450;28;20695;-79
2024/02/21 06:22:41;;;;;;;25.70;11.50;;;5.10;99.90;;;;;;5040851;28;20309;-78
2024/02/21 06:25:31;;;;;;;24.27;11.50;;;5.20;99.90;;;;;;5054244;28;20203;-78
2024/02/21 06:28:20;;;;;;;27.00;11.33;;;5.20;99.90;;;;;;5054432;28;20221;-77
2024/02/21 06:31:08;;;;;;;28.10;12.07;;;5.20;99.90;;;;;;5055417;28;20279;-78
2024/02/21 06:33:55;;;;;;;29.73;11.90;;;5.20;99.90;;;;;;5053969;28;20194;-78
2024/02/21 06:36:45;;;;;;;31.80;12.37;;;5.20;99.90;;;;;;5054143;28;20195;-78
2024/02/21 06:39:43;;;;;;;29.20;12.60;;;5.20;99.90;;;;;;5054790;28;20297;-78
2024/02/21 06:42:31;;;;;;;30.77;13.07;;;5.20;99.90;;;;;;5054900;28;20265;-77
2024/02/21 06:45:18;;;;;;;26.40;11.93;;;5.30;99.90;;;;;;5053947;28;20275;-78
2024/02/21 06:48:06;;;;;;;26.17;12.30;;;5.30;99.90;;;;;;5053537;28;20237;-78
2024/02/21 06:50:54;;;;;;;32.23;14.10;;;5.30;99.90;;;;;;5053414;28;20191;-78
2024/02/21 06:53:41;;;;;;;27.27;13.17;;;5.40;99.90;;;;;;5053771;28;20197;-78
2024/02/21 06:56:28;;;;;;;30.07;12.93;;;5.40;99.90;;;;;;5053729;28;20186;-77
2024/02/21 06:59:17;;;;;;;27.57;12.53;;;5.50;99.90;;;;;;5054392;28;20462;-77
2024/02/21 07:02:04;;;;;;;28.03;13.00;;;5.50;99.90;;;;;;5053315;28;20200;-78
2024/02/21 07:04:52;;;;;;;34.47;13.17;;;5.50;99.90;;;;;;5053753;28;20198;-77
2024/02/21 07:07:40;;;;;;;33.70;13.73;;;5.50;99.90;;;;;;5054267;28;20282;-77
2024/02/21 07:10:28;;;;;;;30.70;13.70;;;5.60;99.90;;;;;;5052438;28;20206;-76
2024/02/21 07:13:25;;;;;;;32.67;14.33;;;5.60;99.90;;;;;;5053326;28;20224;-76
2024/02/21 07:16:13;;;;;;;34.30;14.17;;;5.60;99.90;;;;;;5039240;28;20203;-77
2024/02/21 07:19:01;;;;;;;33.77;14.27;;;5.60;99.90;;;;;;5052812;28;20227;-77
2024/02/21 07:21:49;;;;;;;33.47;14.67;;;5.70;99.90;;;;;;5053877;28;20191;-78
2024/02/21 07:24:37;;;;;;;37.70;14.70;;;5.80;99.90;;;;;;5053165;28;20200;-77
2024/02/21 07:27:27;;;;;;;39.17;14.40;;;5.70;99.90;;;;;;5052744;28;20213;-77
2024/02/21 07:30:15;;;;;;;33.60;14.83;;;5.70;99.90;;;;;;5053423;28;20226;-78
2024/02/21 07:33:04;;;;;;;33.83;14.33;;;5.70;99.90;;;;;;5053661;28;20205;-77
2024/02/21 07:35:51;;;;;;;37.70;15.23;;;5.80;99.90;;;;;;5052332;28;20199;-77
2024/02/21 07:38:39;;;;;;;36.57;15.33;;;5.90;99.90;;;;;;5053010;28;20763;-77
2024/02/21 07:41:28;;;;;;;36.63;14.87;;;5.90;99.90;;;;;;5053443;28;20200;-77
2024/02/21 07:44:16;;;;;;;37.90;15.27;;;6.00;99.90;;;;;;5052341;28;20661;-77
2024/02/21 07:47:03;;;;;;;32.90;15.67;;;6.00;99.90;;;;;;5053207;28;20227;-78
2024/02/21 07:49:51;;;;;;;36.57;15.13;;;6.10;99.90;;;;;;5052960;28;20328;-77
2024/02/21 07:52:38;;;;;;;39.10;15.07;;;6.10;99.90;;;;;;5052027;28;20211;-78
2024/02/21 07:55:26;;;;;;;36.53;15.40;;;6.20;99.90;;;;;;5039499;28;20202;-77
2024/02/21 07:58:14;;;;;;;38.27;15.27;;;6.20;99.90;;;;;;5053165;28;20214;-78
2024/02/21 08:01:01;;;;;;;36.97;16.00;;;6.20;99.90;;;;;;5053094;28;20200;-75
2024/02/21 08:03:49;;;;;;;34.77;14.93;;;6.30;99.90;;;;;;5052967;28;20225;-78
2024/02/21 08:06:37;;;;;;;43.10;15.83;;;6.20;99.90;;;;;;5052305;28;20589;-78
2024/02/21 08:09:24;;;;;;;37.97;15.40;;;6.30;99.90;;;;;;5052980;28;20709;-77
2024/02/21 08:12:12;;;;;;;43.23;15.63;;;6.30;99.90;;;;;;5051739;28;20660;-80
2024/02/21 08:15:00;;;;;;;37.33;15.10;;;6.40;99.90;;;;;;5051882;28;20289;-77
2024/02/21 08:17:47;;;;;;;37.10;14.30;;;6.50;99.90;;;;;;5053393;28;20209;-77
2024/02/21 08:20:35;;;;;;;40.70;14.93;;;6.50;99.90;;;;;;5039189;28;20205;-76
2024/02/21 08:23:24;;;;;;;31.37;14.47;;;6.60;99.90;;;;;;5051987;28;20224;-78
2024/02/21 08:26:12;;;;;;;39.50;14.97;;;6.60;99.90;;;;;;5037792;28;20356;-76
2024/02/21 08:29:00;;;;;;;33.70;14.03;;;6.70;99.90;;;;;;5053206;28;20577;-74
2024/02/21 08:31:49;;;;;;;38.40;14.03;;;6.80;99.90;;;;;;5053390;28;20201;-75
2024/02/21 08:34:37;;;;;;;34.77;14.20;;;6.90;99.90;;;;;;5052056;28;20689;-74
2024/02/21 08:37:27;;;;;;;34.50;13.50;;;6.90;99.90;;;;;;5038367;28;20206;-77
2024/02/21 08:40:19;;;;;;;32.47;13.27;;;7.00;99.90;;;;;;5052434;28;20196;-77
2024/02/21 08:43:07;;;;;;;32.73;12.40;;;7.00;99.90;;;;;;5053309;28;20299;-80
2024/02/21 08:45:54;;;;;;;32.23;12.40;;;7.00;99.90;;;;;;5051328;28;20198;-74
2024/02/21 08:48:42;;;;;;;33.33;11.87;;;7.10;99.90;;;;;;5038719;28;20654;-75
2024/02/21 08:51:30;;;;;;;29.30;11.73;;;7.10;99.90;;;;;;5052542;28;20195;-75
2024/02/21 08:54:18;;;;;;;32.07;11.67;;;7.10;99.90;;;;;;5052838;28;20193;-74
2024/02/21 08:57:05;;;;;;;31.03;12.87;;;7.10;99.90;;;;;;5052121;28;20228;-75
2024/02/21 08:59:53;;;;;;;31.07;12.83;;;7.10;99.90;;;;;;5052002;28;20691;-76
2024/02/21 09:02:44;;;;;;;30.87;12.13;;;7.20;99.90;;;;;;5052464;28;20321;-75
2024/02/21 09:05:34;;;;;;;30.03;12.63;;;7.20;99.90;;;;;;5051973;28;20213;-75
2024/02/21 09:08:24;;;;;;;32.43;12.17;;;7.20;99.90;;;;;;5038267;28;20569;-81
2024/02/21 09:11:12;;;;;;;27.70;11.30;;;7.30;99.90;;;;;;5051815;28;20674;-81
2024/02/21 09:14:00;;;;;;;31.23;11.43;;;7.40;99.90;;;;;;5051231;28;20285;-77
2024/02/21 09:16:47;;;;;;;29.17;11.33;;;7.50;99.90;;;;;;5051412;28;20199;-79
2024/02/21 09:19:35;;;;;;;31.10;10.90;;;7.60;99.90;;;;;;5039201;28;20236;-75
2024/02/21 09:22:23;;;;;;;26.97;11.13;;;7.60;99.90;;;;;;5031981;28;20300;-80
2024/02/21 09:25:12;;;;;;;28.00;10.10;;;7.70;99.90;;;;;;5031236;28;20700;-80
2024/02/21 09:28:02;;;;;;;26.07;10.50;;;7.70;99.90;;;;;;5030767;28;20289;-81
2024/02/21 09:30:49;;;;;;;25.53;10.33;;;7.80;99.90;;;;;;5031672;28;20214;-82
2024/02/21 09:33:37;;;;;;;25.77;9.63;;;7.90;99.90;;;;;;5016260;28;20256;-84
2024/02/21 09:36:25;;;;;;;22.83;10.13;;;7.90;99.90;;;;;;5031136;28;20769;-80
2024/02/21 09:39:14;;;;;;;28.37;10.17;;;7.90;99.90;;;;;;5030256;28;20291;-80
2024/02/21 09:42:09;;;;;;;27.83;9.50;;;7.90;99.90;;;;;;5017692;28;20698;-81
2024/02/21 09:44:57;;;;;;;28.27;9.53;;;7.80;99.90;;;;;;5031492;28;20257;-80
2024/02/21 09:48:21;;;;;;;23.50;8.43;;;7.70;99.90;;;;;;5031688;28;20193;-80
2024/02/21 09:51:10;;;;;;;26.37;7.80;;;7.70;99.90;;;;;;5017124;28;20208;-79
2024/02/21 09:54:05;;;;;;;17.37;6.90;;;7.60;99.90;;;;;;5031362;28;20201;-80
2024/02/21 09:57:12;;;;;;;21.40;7.53;;;7.70;99.90;;;;;;5032067;28;20225;-86
2024/02/21 10:00:07;;;;;;;25.13;7.40;;;7.80;99.90;;;;;;5031262;28;20198;-80
2024/02/21 10:02:55;;;;;;;17.90;7.40;;;7.70;99.90;;;;;;5030756;28;20201;-82
2024/02/21 10:05:49;;;;;;;24.90;7.37;;;7.80;99.90;;;;;;5031265;28;20202;-85
2024/02/21 10:08:37;;;;;;;22.97;7.10;;;7.90;99.90;;;;;;5030911;28;20197;-80
2024/02/21 10:11:25;;;;;;;23.53;7.43;;;7.90;99.90;;;;;;5031345;28;20194;-82
2024/02/21 10:14:15;;;;;;;25.90;8.60;;;7.90;99.90;;;;;;5030759;28;20284;-82
2024/02/21 10:17:09;;;;;;;21.53;7.23;;;8.00;99.90;;;;;;5031983;28;20261;-82
2024/02/21 10:20:16;;;;;;;20.73;7.53;;;8.10;99.90;;;;;;5018235;28;20232;-81
2024/02/21 10:23:10;;;;;;;17.47;7.27;;;8.10;99.90;;;;;;5017603;28;20203;-82
2024/02/21 10:26:07;;;;;;;18.87;7.17;;;8.20;99.90;;;;;;5031213;28;20527;-81
2024/02/21 10:29:02;;;;;;;20.97;7.20;;;8.10;99.90;;;;;;5030413;28;20203;-81
2024/02/21 10:31:49;;;;;;;23.53;8.27;;;8.10;99.90;;;;;;5031235;28;20198;-78
2024/02/21 10:34:38;;;;;;;25.77;8.43;;;8.10;99.90;;;;;;5030665;28;20728;-79
2024/02/21 10:37:26;;;;;;;23.67;9.00;;;8.10;99.90;;;;;;5030133;28;20199;-81
2024/02/21 10:40:14;;;;;;;21.13;7.93;;;8.10;99.90;;;;;;5031651;28;20209;-79
2024/02/21 10:43:03;;;;;;;20.90;7.60;;;8.20;99.90;;;;;;5031392;28;20215;-82
2024/02/21 10:45:53;;;;;;;18.17;8.33;;;8.20;99.90;;;;;;5020768;28;20195;-80
2024/02/21 10:48:45;;;;;;;20.23;8.07;;;8.20;99.90;;;;;;5034561;28;20200;-79
2024/02/21 10:51:43;;;;;;;21.90;8.63;;;8.20;99.90;;;;;;5033397;28;20685;-80
2024/02/21 10:54:46;;;;;;;26.57;9.30;;;8.20;99.90;;;;;;5034330;28;20202;-80
2024/02/21 10:57:37;;;;;;;21.50;9.17;;;8.20;99.90;;;;;;5034228;28;20568;-80
2024/02/21 11:00:30;;;;;;;29.17;10.40;;;8.10;99.90;;;;;;5033961;28;20714;-82
2024/02/21 11:03:18;;;;;;;25.57;9.47;;;8.10;99.90;;;;;;5035306;28;20253;-81
2024/02/21 11:06:12;;;;;;;28.60;10.57;;;8.10;99.90;;;;;;5033803;28;20203;-79
2024/02/21 11:09:06;;;;;;;24.93;10.60;;;8.10;99.90;;;;;;5034472;28;20551;-81
2024/02/21 11:12:12;;;;;;;24.10;10.80;;;8.20;99.90;;;;;;5019559;28;20257;-85
2024/02/21 11:15:06;;;;;;;24.40;11.40;;;8.10;99.90;;;;;;5034141;28;20685;-83
2024/02/21 11:17:55;;;;;;;28.73;11.57;;;8.10;99.90;;;;;;5032963;28;20198;-81
2024/02/21 11:20:51;;;;;;;27.10;10.80;;;8.10;99.90;;;;;;5033935;28;20678;-81
2024/02/21 11:23:39;;;;;;;25.77;11.67;;;8.10;99.90;;;;;;5032385;28;20583;-80
2024/02/21 11:26:29;;;;;;;27.63;12.00;;;8.10;99.90;;;;;;5034578;28;20202;-83
2024/02/21 11:29:24;;;;;;;29.63;12.20;;;8.20;99.90;;;;;;5033424;28;20200;-81
2024/02/21 11:32:16;;;;;;;24.23;11.87;;;8.20;99.90;;;;;;5033313;28;20666;-81
2024/02/21 11:35:05;;;;;;;28.83;12.73;;;8.20;99.90;;;;;;5033045;28;20195;-81
2024/02/21 11:37:55;;;;;;;28.87;12.63;;;8.10;99.90;;;;;;5020548;28;20194;-81
2024/02/21 11:40:47;;;;;;;30.63;12.73;;;8.00;99.90;;;;;;5034380;28;20210;-82
2024/02/21 11:43:35;;;;;;;27.50;12.67;;;8.00;99.90;;;;;;5031934;28;20302;-81
2024/02/21 11:46:26;;;;;;;32.17;13.17;;;7.90;99.90;;;;;;5032295;28;20199;-82
2024/02/21 11:49:13;;;;;;;29.93;13.83;;;7.80;99.90;;;;;;5019434;28;20211;-82
2024/02/21 11:52:04;;;;;;;27.33;13.10;;;7.80;99.90;;;;;;5032347;28;20231;-81
2024/02/21 11:54:53;;;;;;;30.37;13.20;;;7.70;99.90;;;;;;5033741;28;20205;-82
2024/02/21 11:57:42;;;;;;;27.03;13.63;;;7.70;99.90;;;;;;5032602;28;20248;-81
2024/02/21 12:00:31;;;;;;;29.47;13.90;;;7.60;99.90;;;;;;5033709;28;20274;-82
2024/02/21 12:03:20;;;;;;;36.80;14.70;;;7.60;99.90;;;;;;5033133;28;20204;-82
2024/02/21 12:06:14;;;;;;;32.93;14.33;;;7.50;99.90;;;;;;5031872;28;20668;-84
2024/02/21 12:09:02;;;;;;;30.37;15.07;;;7.50;99.90;;;;;;5032821;28;20540;-82
2024/02/21 12:12:00;;;;;;;31.10;14.73;;;7.50;99.90;;;;;;5033231;28;20238;-82
2024/02/21 12:15:00;;;;;;;34.43;14.00;;;7.40;99.90;;;;;;5032708;28;20721;-82
2024/02/21 12:17:48;;;;;;;31.37;13.43;;;7.40;99.90;;;;;;5019906;28;20206;-82
2024/02/21 12:20:36;;;;;;;38.63;14.90;;;7.40;99.90;;;;;;5032074;28;20341;-80
2024/02/21 12:23:28;;;;;;;33.53;14.80;;;7.40;99.90;;;;;;5018527;28;20202;-80
2024/02/21 12:26:18;;;;;;;30.23;13.63;;;7.40;99.90;;;;;;5032984;28;20202;-81
2024/02/21 12:29:15;;;;;;;36.07;14.73;;;7.30;99.90;;;;;;5019132;28;20241;-83
2024/02/21 12:32:04;;;;;;;35.40;15.23;;;7.30;99.90;;;;;;5032331;28;20223;-82
2024/02/21 12:34:51;;;;;;;33.57;15.47;;;7.30;99.90;;;;;;5032760;28;20565;-83
2024/02/21 12:37:41;;;;;;;36.07;16.07;;;7.30;99.90;;;;;;5031003;28;20198;-80
2024/02/21 12:40:32;;;;;;;29.97;15.13;;;7.30;99.90;;;;;;5032369;28;20649;-81
2024/02/21 12:43:22;;;;;;;31.00;15.40;;;7.30;99.90;;;;;;5032780;28;20208;-84
2024/02/21 12:46:10;;;;;;;33.47;15.67;;;7.30;99.90;;;;;;5033180;28;20277;-86
2024/02/21 12:48:57;;;;;;;34.40;15.93;;;7.30;99.90;;;;;;5019498;28;20252;-84
2024/02/21 12:51:48;;;;;;;36.77;16.20;;;7.20;99.90;;;;;;5034400;28;20246;-86
2024/02/21 12:54:37;;;;;;;32.30;15.67;;;7.20;99.90;;;;;;5036090;28;20195;-84
2024/02/21 12:57:24;;;;;;;41.60;17.23;;;7.30;99.90;;;;;;5031566;28;20298;-83
2024/02/21 13:00:15;;;;;;;41.50;17.10;;;7.20;99.90;;;;;;5018468;28;20205;-80
2024/02/21 13:03:03;;;;;;;39.30;17.47;;;7.20;99.90;;;;;;5033037;28;20198;-83
2024/02/21 13:05:51;;;;;;;37.13;16.80;;;7.20;99.90;;;;;;5032434;28;20310;-82
2024/02/21 13:08:39;;;;;;;39.80;16.03;;;7.20;99.90;;;;;;5032098;28;20313;-82
2024/02/21 13:11:30;;;;;;;38.63;16.97;;;7.20;99.90;;;;;;5032383;28;20197;-82
2024/02/21 13:14:19;;;;;;;38.67;16.80;;;7.20;99.90;;;;;;5033701;28;20307;-82
2024/02/21 13:17:06;;;;;;;33.57;15.93;;;7.20;99.90;;;;;;5018605;28;20681;-82
2024/02/21 13:19:54;;;;;;;32.97;16.30;;;7.10;99.90;;;;;;5033347;28;20230;-82
2024/02/21 13:22:42;;;;;;;37.87;16.80;;;7.10;99.90;;;;;;5032392;28;20208;-81
2024/02/21 13:25:30;;;;;;;38.43;16.47;;;7.20;99.90;;;;;;5018134;28;20221;-81
2024/02/21 13:28:17;;;;;;;38.63;16.70;;;7.10;99.90;;;;;;5017771;28;20215;-82
2024/02/21 13:31:06;;;;;;;40.73;16.00;;;7.20;99.90;;;;;;5032731;28;20215;-83
2024/02/21 13:33:53;;;;;;;34.13;14.80;;;7.20;99.90;;;;;;5032957;28;20256;-83
2024/02/21 13:36:41;;;;;;;28.87;15.53;;;7.10;99.90;;;;;;5032501;28;20227;-81
2024/02/21 13:39:28;;;;;;;29.07;14.13;;;7.10;99.90;;;;;;5032001;28;20288;-82
2024/02/21 13:42:17;;;;;;;33.67;15.60;;;7.10;99.90;;;;;;5031478;28;20219;-79
2024/02/21 13:45:05;;;;;;;30.33;14.77;;;7.20;99.90;;;;;;5031168;28;20274;-83
2024/02/21 13:47:54;;;;;;;35.43;14.57;;;7.20;99.90;;;;;;5032661;28;20203;-83
2024/02/21 13:50:43;;;;;;;37.33;14.63;;;7.10;99.90;;;;;;5032612;28;20204;-82
2024/02/21 13:53:31;;;;;;;30.77;14.67;;;7.10;99.90;;;;;;5032420;28;20246;-80
2024/02/21 13:56:18;;;;;;;32.40;15.03;;;7.10;99.90;;;;;;5031672;28;20242;-84
2024/02/21 13:59:06;;;;;;;30.47;14.53;;;7.00;99.90;;;;;;5032069;28;20205;-84
2024/02/21 14:01:54;;;;;;;37.17;16.03;;;7.10;99.90;;;;;;5030963;28;20230;-84
2024/02/21 14:04:42;;;;;;;34.20;13.87;;;7.10;99.90;;;;;;5031066;28;20311;-83
2024/02/21 14:07:30;;;;;;;31.20;13.70;;;7.10;99.90;;;;;;5034728;28;20385;-83
2024/02/21 14:10:18;;;;;;;37.90;14.93;;;7.10;99.90;;;;;;5034838;28;20198;-82
2024/02/21 14:13:06;;;;;;;37.13;14.87;;;7.10;99.90;;;;;;5031935;28;20211;-82
2024/02/21 14:15:53;;;;;;;30.40;14.43;;;7.10;99.90;;;;;;5016281;28;20189;-81
2024/02/21 14:18:44;;;;;;;34.67;15.70;;;7.10;99.90;;;;;;5030841;28;20392;-81
2024/02/21 14:21:37;;;;;;;32.53;15.47;;;7.10;99.90;;;;;;5035898;28;20197;-83
2024/02/21 14:24:25;;;;;;;34.03;15.40;;;7.10;99.90;;;;;;5035152;28;20221;-82
2024/02/21 14:27:13;;;;;;;33.57;14.43;;;7.10;99.90;;;;;;5035488;28;20246;-81
2024/02/21 14:30:02;;;;;;;31.13;14.67;;;7.00;99.90;;;;;;5034183;28;20688;-81
2024/02/21 14:32:51;;;;;;;35.17;14.73;;;7.10;99.90;;;;;;5035096;28;20189;-82